createdAt,value
2018-07-06T00:02:39.876Z,59.31
2018-07-06T00:05:26.546Z,59.05
2018-07-06T00:08:07.037Z,59.19
2018-07-06T00:10:53.505Z,60.38
2018-07-06T00:13:40.143Z,60.78
2018-07-06T00:16:26.663Z,61.19
2018-07-06T00:19:13.245Z,61.80
2018-07-06T00:21:59.953Z,62.29
2018-07-06T00:24:46.430Z,62.28
2018-07-06T00:27:32.773Z,62.99
2018-07-06T00:30:19.443Z,62.87
2018-07-06T00:33:05.887Z,63.33
2018-07-06T00:35:52.448Z,63.24
2018-07-06T00:38:39.084Z,63.91
2018-07-06T00:41:25.391Z,63.88
2018-07-06T00:44:12.068Z,64.80
2018-07-06T00:46:59.445Z,64.95
2018-07-06T00:49:46.004Z,65.63
2018-07-06T00:52:32.259Z,65.77
2018-07-06T00:55:18.635Z,65.94
2018-07-06T00:58:05.424Z,65.86
2018-07-06T01:00:52.003Z,66.08
2018-07-06T01:03:38.359Z,66.41
2018-07-06T01:06:24.920Z,66.79
2018-07-06T01:09:11.407Z,67.11
2018-07-06T01:12:01.936Z,67.16
2018-07-06T01:14:48.522Z,66.97
2018-07-06T01:17:36.671Z,68.01
2018-07-06T01:20:23.511Z,67.67
2018-07-06T01:23:09.915Z,67.67
2018-07-06T01:25:57.848Z,68.06
2018-07-06T01:28:44.431Z,68.21
2018-07-06T01:31:31.111Z,68.50
2018-07-06T01:34:17.695Z,68.76
2018-07-06T01:37:04.984Z,69.11
2018-07-06T01:39:51.391Z,69.36
2018-07-06T01:42:37.815Z,69.96
2018-07-06T01:45:24.395Z,70.05
2018-07-06T01:48:10.923Z,70.20
2018-07-06T01:50:57.651Z,70.79
2018-07-06T01:53:44.111Z,70.42
2018-07-06T01:56:30.480Z,71.37
2018-07-06T01:59:17.039Z,71.67
2018-07-06T02:02:03.623Z,71.38
2018-07-06T02:04:49.984Z,71.80
2018-07-06T02:07:36.502Z,71.97
2018-07-06T02:10:23.395Z,72.20
2018-07-06T02:13:09.867Z,72.33
2018-07-06T02:15:56.200Z,72.61
2018-07-06T02:18:42.719Z,73.17
2018-07-06T02:21:29.580Z,73.10
2018-07-06T02:24:17.125Z,73.62
2018-07-06T02:27:03.939Z,73.81
2018-07-06T02:29:51.172Z,73.87
2018-07-06T02:32:37.843Z,74.22
2018-07-06T02:35:25.159Z,74.18
2018-07-06T02:38:11.755Z,74.31
2018-07-06T02:40:58.523Z,74.20
2018-07-06T02:43:46.007Z,74.68
2018-07-06T02:46:32.791Z,74.63
2018-07-06T02:49:19.899Z,74.45
2018-07-06T02:52:06.355Z,74.89
2018-07-06T02:54:52.842Z,75.59
2018-07-06T02:57:40.201Z,75.41
2018-07-06T03:00:27.564Z,75.95
2018-07-06T03:03:14.350Z,76.35
2018-07-06T03:06:01.091Z,75.97
2018-07-06T03:08:48.006Z,76.04
2018-07-06T03:11:28.495Z,76.20
2018-07-06T03:14:15.025Z,76.06
2018-07-06T03:17:02.280Z,76.14
2018-07-06T03:19:48.682Z,76.17
2018-07-06T03:22:35.326Z,76.38
2018-07-06T03:25:21.824Z,75.82
2018-07-06T03:28:08.382Z,75.72
2018-07-06T03:30:54.858Z,75.91
2018-07-06T03:33:41.525Z,75.80
2018-07-06T03:36:28.374Z,76.23
2018-07-06T03:39:15.004Z,76.11
2018-07-06T03:42:01.477Z,75.57
2018-07-06T03:44:47.943Z,74.49
2018-07-06T03:47:34.452Z,74.07
2018-07-06T03:50:21.103Z,73.50
2018-07-06T03:53:07.636Z,72.95
2018-07-06T03:55:54.194Z,72.66
2018-07-06T03:58:40.520Z,71.78
2018-07-06T04:01:26.792Z,71.83
2018-07-06T04:04:13.430Z,71.09
2018-07-06T04:07:00.137Z,70.80
2018-07-06T04:09:46.750Z,71.29
2018-07-06T04:12:33.446Z,70.88
2018-07-06T04:15:19.785Z,71.26
2018-07-06T04:18:06.389Z,70.58
2018-07-06T04:20:52.896Z,69.79
2018-07-06T04:23:39.555Z,69.07
2018-07-06T04:26:26.148Z,67.91
2018-07-06T04:29:12.662Z,67.52
2018-07-06T04:31:59.251Z,66.56
2018-07-06T04:34:45.739Z,66.15
2018-07-06T04:37:32.331Z,64.42
2018-07-06T04:40:18.965Z,63.67
2018-07-06T04:43:05.862Z,63.95
2018-07-06T04:45:52.205Z,63.32
2018-07-06T04:48:38.663Z,62.81
2018-07-06T04:51:25.257Z,62.42
2018-07-06T04:54:11.779Z,61.75
2018-07-06T04:56:58.263Z,61.88
2018-07-06T04:59:44.738Z,61.26
2018-07-06T05:02:31.258Z,60.78
2018-07-06T05:05:17.731Z,59.95
2018-07-06T05:08:04.359Z,58.98
2018-07-06T05:10:50.909Z,58.48
2018-07-06T05:13:37.443Z,58.72
2018-07-06T05:16:24.087Z,58.55
2018-07-06T05:19:10.531Z,58.10
2018-07-06T05:21:56.961Z,58.32
2018-07-06T05:24:43.717Z,58.31
2018-07-06T05:27:30.187Z,57.73
2018-07-06T05:30:16.833Z,57.58
2018-07-06T05:33:03.319Z,57.39
2018-07-06T05:35:43.851Z,57.00
2018-07-06T05:38:30.794Z,57.38
2018-07-06T05:41:17.695Z,58.24
2018-07-06T05:44:03.996Z,58.81
2018-07-06T05:46:50.573Z,58.60
2018-07-06T05:49:36.972Z,59.14
2018-07-06T05:52:23.604Z,58.61
2018-07-06T05:55:10.110Z,59.86
2018-07-06T05:57:56.737Z,60.27
2018-07-06T06:00:43.399Z,59.87
2018-07-06T06:03:29.964Z,58.92
2018-07-06T06:06:16.516Z,58.01
2018-07-06T06:08:44.588Z,57.60
2018-07-06T06:11:14.423Z,57.36
2018-07-06T06:13:45.255Z,56.91
2018-07-06T06:16:16.025Z,57.43
2018-07-06T06:18:46.549Z,57.67
2018-07-06T06:21:16.739Z,57.25
2018-07-06T06:23:47.245Z,56.66
2018-07-06T06:26:21.510Z,57.06
2018-07-06T06:28:51.313Z,56.52
2018-07-06T06:31:22.213Z,57.42
2018-07-06T06:33:53.033Z,58.62
2018-07-06T06:36:24.141Z,58.22
2018-07-06T06:38:58.632Z,57.08
2018-07-06T06:41:28.697Z,56.15
2018-07-06T06:43:58.767Z,55.68
2018-07-06T06:46:29.155Z,55.99
2018-07-06T06:48:59.101Z,56.22
2018-07-06T06:51:28.994Z,56.36
2018-07-06T06:54:00.046Z,54.79
2018-07-06T06:56:30.093Z,53.95
2018-07-06T06:59:00.395Z,52.72
2018-07-06T07:01:31.307Z,52.15
2018-07-06T07:04:01.273Z,52.04
2018-07-06T07:06:32.239Z,50.89
2018-07-06T07:09:02.279Z,49.92
2018-07-06T07:11:32.351Z,51.55
2018-07-06T07:14:02.289Z,51.53
2018-07-06T07:16:32.898Z,50.49
2018-07-06T07:19:02.951Z,51.11
2018-07-06T07:21:33.042Z,50.75
2018-07-06T07:24:03.025Z,50.92
2018-07-06T07:26:33.617Z,49.30
2018-07-06T07:29:03.542Z,49.27
2018-07-06T07:31:33.533Z,50.17
2018-07-06T07:34:03.535Z,51.45
2018-07-06T07:36:33.442Z,52.10
2018-07-06T07:39:03.691Z,51.69
2018-07-06T07:41:33.627Z,50.60
2018-07-06T07:44:03.513Z,49.79
2018-07-06T07:46:33.690Z,49.52
2018-07-06T07:49:05.284Z,49.13
2018-07-06T07:52:02.812Z,48.99
2018-07-06T07:54:52.987Z,48.10
2018-07-06T07:57:23.187Z,48.38
2018-07-06T07:59:56.893Z,49.35
2018-07-06T08:02:26.737Z,49.79
2018-07-06T08:04:56.637Z,50.46
2018-07-06T08:07:26.497Z,48.67
2018-07-06T08:09:56.628Z,48.97
2018-07-06T08:12:26.542Z,48.43
2018-07-06T08:14:56.445Z,47.32
2018-07-06T08:17:26.275Z,47.61
2018-07-06T08:19:56.127Z,48.17
2018-07-06T08:22:26.039Z,48.64
2018-07-06T08:24:56.025Z,48.00
2018-07-06T08:27:25.749Z,47.29
2018-07-06T08:29:55.493Z,47.11
2018-07-06T08:32:25.299Z,46.73
2018-07-06T08:35:11.804Z,46.78
2018-07-06T08:38:00.786Z,45.96
2018-07-06T08:40:30.733Z,46.32
2018-07-06T08:43:01.578Z,47.83
2018-07-06T08:45:32.407Z,48.35
2018-07-06T08:48:02.346Z,48.28
2018-07-06T08:50:32.367Z,48.43
2018-07-06T08:53:02.154Z,48.07
2018-07-06T08:55:32.222Z,47.64
2018-07-06T08:58:02.030Z,46.79
2018-07-06T09:00:31.852Z,46.52
2018-07-06T09:03:01.696Z,47.30
2018-07-06T09:05:31.633Z,48.25
2018-07-06T09:08:01.321Z,47.55
2018-07-06T09:10:31.259Z,46.94
2018-07-06T09:13:01.118Z,47.42
2018-07-06T09:15:30.882Z,45.73
2018-07-06T09:18:00.761Z,44.84
2018-07-06T09:20:30.654Z,43.96
2018-07-06T09:23:00.834Z,43.09
2018-07-06T09:25:30.769Z,43.92
2018-07-06T09:28:00.815Z,45.14
2018-07-06T09:30:30.897Z,45.02
2018-07-06T09:33:00.742Z,44.87
2018-07-06T09:35:30.642Z,44.92
2018-07-06T09:38:00.570Z,44.87
2018-07-06T09:40:30.836Z,42.82
2018-07-06T09:43:04.140Z,42.25
2018-07-06T09:45:34.572Z,42.98
2018-07-06T09:48:05.721Z,43.25
2018-07-06T09:50:36.657Z,42.85
2018-07-06T09:53:06.792Z,42.30
2018-07-06T09:55:36.736Z,41.19
2018-07-06T09:58:07.442Z,40.93
2018-07-06T10:00:43.228Z,41.94
2018-07-06T10:03:14.816Z,40.78
2018-07-06T10:05:44.905Z,39.33
2018-07-06T10:08:16.756Z,39.32
2018-07-06T10:10:47.110Z,40.25
2018-07-06T10:13:18.760Z,38.93
2018-07-06T10:15:50.132Z,38.43
2018-07-06T10:18:20.233Z,39.60
2018-07-06T10:20:52.341Z,40.09
2018-07-06T10:23:22.389Z,40.21
2018-07-06T10:25:52.168Z,39.56
2018-07-06T10:29:47.248Z,40.15
2018-07-06T10:32:24.025Z,41.48
2018-07-06T10:34:55.963Z,42.78
2018-07-06T10:37:27.087Z,41.62
2018-07-06T10:39:57.035Z,41.41
2018-07-06T10:42:27.809Z,41.48
2018-07-06T10:44:57.794Z,41.80
2018-07-06T10:47:27.630Z,43.29
2018-07-06T10:49:58.454Z,42.70
2018-07-06T10:52:42.629Z,42.37
2018-07-06T10:55:14.177Z,41.33
2018-07-06T10:57:44.365Z,40.44
2018-07-06T11:00:14.574Z,38.81
2018-07-06T11:02:45.034Z,40.50
2018-07-06T11:05:15.249Z,40.40
2018-07-06T11:07:50.032Z,38.58
2018-07-06T11:10:19.900Z,39.96
2018-07-06T11:12:51.134Z,39.71
2018-07-06T11:15:21.715Z,40.35
2018-07-06T11:17:51.999Z,41.16
2018-07-06T11:20:23.661Z,40.95
2018-07-06T11:22:54.188Z,39.89
2018-07-06T11:25:24.626Z,40.20
2018-07-06T11:27:55.339Z,39.38
2018-07-06T11:30:26.468Z,40.50
2018-07-06T11:32:57.378Z,40.18
2018-07-06T11:35:28.531Z,39.30
2018-07-06T11:37:58.882Z,40.09
2018-07-06T11:40:29.252Z,41.67
2018-07-06T11:42:59.093Z,40.53
2018-07-06T11:50:48.273Z,39.53
2018-07-06T11:53:18.557Z,39.83
2018-07-06T11:55:50.564Z,41.05
2018-07-06T11:58:20.418Z,41.78
2018-07-06T12:00:50.466Z,42.18
2018-07-06T12:03:20.275Z,42.11
2018-07-06T12:05:50.369Z,41.58
2018-07-06T12:08:21.312Z,41.67
2018-07-06T12:10:51.710Z,42.36
2018-07-06T12:13:22.501Z,41.52
2018-07-06T12:15:53.246Z,40.54
2018-07-06T12:18:24.214Z,41.21
2018-07-06T12:20:55.679Z,40.92
2018-07-06T12:23:27.097Z,41.48
2018-07-06T12:25:57.480Z,41.39
2018-07-06T12:28:26.937Z,41.19
2018-07-06T12:30:57.956Z,41.30
2018-07-06T12:33:28.292Z,42.15
2018-07-06T12:35:58.217Z,42.33
2018-07-06T12:38:28.364Z,42.31
2018-07-06T12:40:58.644Z,42.25
2018-07-06T12:43:28.520Z,43.12
2018-07-06T12:45:58.409Z,42.03
2018-07-06T12:48:28.810Z,42.69
2018-07-06T12:50:58.689Z,41.71
2018-07-06T12:53:28.803Z,42.20
2018-07-06T12:55:58.860Z,41.26
2018-07-06T12:58:28.935Z,41.21
2018-07-06T13:00:58.781Z,41.50
2018-07-06T13:03:28.720Z,41.75
2018-07-06T13:05:58.660Z,42.32
2018-07-06T13:08:29.416Z,41.92
2018-07-06T13:10:59.609Z,41.80
2018-07-06T13:13:29.457Z,41.64
2018-07-06T13:15:59.357Z,40.88
2018-07-06T13:18:29.213Z,41.13
2018-07-06T13:20:59.076Z,42.16
2018-07-06T13:23:29.646Z,42.99
2018-07-06T13:25:59.689Z,43.50
2018-07-06T13:28:29.462Z,43.71
2018-07-06T13:30:59.389Z,43.01
2018-07-06T13:33:34.958Z,42.79
2018-07-06T13:36:04.751Z,42.82
2018-07-06T13:38:34.629Z,42.02
2018-07-06T13:41:04.784Z,42.54
2018-07-06T13:43:34.654Z,42.54
2018-07-06T13:46:04.565Z,42.43
2018-07-06T13:48:34.396Z,42.29
2018-07-06T13:51:04.248Z,41.96
2018-07-06T13:53:34.039Z,41.20
2018-07-06T13:56:03.794Z,41.60
2018-07-06T13:58:33.735Z,41.97
2018-07-06T14:01:03.643Z,42.04
2018-07-06T14:03:33.582Z,41.31
2018-07-06T14:06:03.393Z,41.43
2018-07-06T14:08:33.311Z,44.69
2018-07-06T14:11:03.228Z,43.85
2018-07-06T14:13:33.135Z,43.75
2018-07-06T14:16:02.906Z,41.67
2018-07-06T14:18:32.775Z,42.39
2018-07-06T14:21:02.613Z,42.63
2018-07-06T14:23:32.839Z,41.04
2018-07-06T14:26:02.760Z,40.08
2018-07-06T14:28:32.583Z,40.06
2018-07-06T14:31:02.373Z,40.41
2018-07-06T14:33:32.196Z,40.94
2018-07-06T14:36:02.178Z,41.60
2018-07-06T14:38:31.982Z,42.00
2018-07-06T14:41:01.810Z,41.56
2018-07-06T14:43:31.665Z,42.15
2018-07-06T14:46:01.543Z,41.16
2018-07-06T14:48:31.347Z,42.02
2018-07-06T14:51:01.195Z,41.66
2018-07-06T14:53:31.607Z,41.86
2018-07-06T14:56:01.632Z,41.80
2018-07-06T14:58:31.978Z,42.78
2018-07-06T15:01:02.066Z,43.11
2018-07-06T15:03:32.876Z,45.05
2018-07-06T15:06:02.946Z,43.62
2018-07-06T15:08:32.904Z,43.91
2018-07-06T15:11:02.857Z,44.92
2018-07-06T15:13:32.788Z,46.20
2018-07-06T15:16:02.673Z,46.12
2018-07-06T15:18:32.413Z,46.68
2018-07-06T15:21:02.348Z,46.35
2018-07-06T15:23:32.435Z,45.85
2018-07-06T15:26:02.497Z,45.38
2018-07-06T15:28:32.504Z,45.71
2018-07-06T15:31:02.516Z,46.00
2018-07-06T15:33:32.467Z,46.26
2018-07-06T15:36:02.406Z,46.42
2018-07-06T15:38:32.445Z,47.01
2018-07-06T15:41:02.389Z,45.89
2018-07-06T15:43:32.306Z,45.61
2018-07-06T15:46:02.135Z,46.61
2018-07-06T15:48:32.011Z,45.94
2018-07-06T15:51:01.875Z,47.01
2018-07-06T15:53:31.687Z,47.19
2018-07-06T15:56:01.506Z,46.85
2018-07-06T15:58:31.303Z,46.97
2018-07-06T16:01:01.232Z,45.59
2018-07-06T16:03:31.073Z,45.23
2018-07-06T16:06:01.026Z,45.95
2018-07-06T16:08:30.919Z,45.42
2018-07-06T16:11:00.767Z,44.20
2018-07-06T16:13:30.593Z,43.65
2018-07-06T16:16:00.363Z,42.47
2018-07-06T16:18:30.220Z,42.43
2018-07-06T16:21:00.107Z,41.64
2018-07-06T16:23:29.927Z,41.38
2018-07-06T16:25:59.696Z,40.92
2018-07-06T16:28:29.637Z,41.15
2018-07-06T16:30:59.496Z,41.66
2018-07-06T16:33:29.404Z,41.64
2018-07-06T16:35:59.241Z,41.42
2018-07-06T16:38:29.029Z,41.20
2018-07-06T16:40:58.837Z,41.18
2018-07-06T16:43:28.722Z,41.29
2018-07-06T16:45:58.598Z,41.30
2018-07-06T16:48:28.476Z,40.88
2018-07-06T16:50:58.362Z,39.65
2018-07-06T16:53:28.131Z,39.95
2018-07-06T16:55:58.234Z,38.93
2018-07-06T16:58:28.086Z,39.73
2018-07-06T17:00:58.141Z,41.37
2018-07-06T17:03:27.986Z,40.97
2018-07-06T17:05:57.968Z,41.48
2018-07-06T17:08:28.005Z,39.12
2018-07-06T17:10:57.886Z,40.00
2018-07-06T17:13:27.755Z,40.74
2018-07-06T17:15:57.772Z,40.63
2018-07-06T17:18:29.200Z,41.83
2018-07-06T17:20:59.603Z,41.19
2018-07-06T17:23:29.408Z,40.70
2018-07-06T17:25:59.740Z,42.13
2018-07-06T17:28:29.622Z,43.19
2018-07-06T17:30:59.454Z,44.04
2018-07-06T17:33:29.404Z,43.71
2018-07-06T17:35:59.145Z,44.06
2018-07-06T17:38:29.050Z,43.21
2018-07-06T17:40:58.866Z,41.98
2018-07-06T17:43:29.402Z,41.75
2018-07-06T17:45:59.238Z,41.53
2018-07-06T17:48:29.238Z,39.53
2018-07-06T17:50:59.258Z,39.92
2018-07-06T17:53:29.199Z,39.35
2018-07-06T17:55:59.697Z,38.08
2018-07-06T17:58:29.644Z,37.55
2018-07-06T18:00:59.592Z,37.98
2018-07-06T18:03:29.425Z,37.02
2018-07-06T18:05:59.286Z,36.06
2018-07-06T18:08:31.413Z,36.52
2018-07-06T18:11:01.280Z,35.70
2018-07-06T18:13:31.234Z,37.45
2018-07-06T18:16:01.815Z,39.83
2018-07-06T18:18:32.849Z,41.04
2018-07-06T18:21:03.160Z,42.94
2018-07-06T18:23:33.857Z,43.61
2018-07-06T18:26:04.366Z,44.39
2018-07-06T18:28:34.627Z,45.77
2018-07-06T18:31:04.890Z,46.79
2018-07-06T18:33:34.765Z,47.73
2018-07-06T18:36:05.011Z,46.96
2018-07-06T18:38:35.317Z,46.64
2018-07-06T18:41:05.866Z,46.37
2018-07-06T18:43:35.942Z,47.22
2018-07-06T18:46:06.473Z,48.27
2018-07-06T18:48:37.427Z,49.10
2018-07-06T18:51:07.643Z,50.07
2018-07-06T18:53:37.926Z,50.66
2018-07-06T18:56:08.179Z,51.20
2018-07-06T18:58:38.105Z,51.76
2018-07-06T19:01:20.109Z,52.29
2018-07-06T19:03:49.676Z,52.47
2018-07-06T19:06:19.557Z,52.31
2018-07-06T19:08:50.510Z,52.43
2018-07-06T19:11:20.530Z,52.64
2018-07-06T19:13:50.466Z,53.02
2018-07-06T19:16:20.522Z,53.79
2018-07-06T19:18:50.510Z,54.35
2018-07-06T19:21:21.182Z,55.07
2018-07-06T19:23:51.313Z,55.12
2018-07-06T19:26:22.983Z,56.25
2018-07-06T19:28:53.816Z,56.84
2018-07-06T19:31:23.831Z,57.34
2018-07-06T19:33:53.932Z,57.88
2018-07-06T19:36:26.077Z,58.93
2018-07-06T19:38:57.012Z,59.02
2018-07-06T19:41:26.837Z,59.16
2018-07-06T19:43:56.995Z,59.15
2018-07-06T19:46:26.969Z,59.33
2018-07-06T19:48:58.432Z,59.88
2018-07-06T19:51:28.321Z,59.68
2018-07-06T19:53:58.305Z,60.47
2018-07-06T19:56:30.049Z,60.50
2018-07-06T19:58:59.942Z,61.66
2018-07-06T20:01:32.979Z,61.05
2018-07-06T20:04:03.512Z,61.18
2018-07-06T20:06:33.412Z,61.65
2018-07-06T20:09:03.982Z,61.19
2018-07-06T20:11:33.808Z,61.78
2018-07-06T20:14:04.117Z,62.48
2018-07-06T20:16:35.796Z,63.02
2018-07-06T20:19:05.729Z,62.65
2018-07-06T20:21:36.447Z,65.03
2018-07-06T20:24:07.582Z,63.90
2018-07-06T20:26:38.094Z,64.91
2018-07-06T20:29:08.805Z,64.31
2018-07-06T20:31:39.311Z,64.75
2018-07-06T20:34:09.902Z,65.19
2018-07-06T20:36:39.844Z,65.24
2018-07-06T20:39:10.732Z,66.71
2018-07-06T20:41:40.603Z,67.23
2018-07-06T20:44:10.452Z,66.86
2018-07-06T20:46:40.296Z,67.64
2018-07-06T20:49:10.153Z,66.79
2018-07-06T20:51:41.246Z,67.08
2018-07-06T20:54:11.148Z,66.76
2018-07-06T20:56:41.012Z,66.83
2018-07-06T20:59:10.828Z,67.47
2018-07-06T21:01:40.829Z,67.68
2018-07-06T21:04:10.685Z,68.78
2018-07-06T21:06:40.621Z,68.24
2018-07-06T21:09:10.609Z,68.26
2018-07-06T21:11:40.464Z,68.26
2018-07-06T21:14:10.663Z,68.20
2018-07-06T21:16:40.565Z,68.88
2018-07-06T21:19:10.373Z,69.82
2018-07-06T21:21:40.272Z,69.37
2018-07-06T21:24:10.171Z,69.69
2018-07-06T21:26:41.189Z,70.05
2018-07-06T21:29:10.972Z,70.73
2018-07-06T21:31:40.839Z,70.25
2018-07-06T21:34:10.788Z,70.42
2018-07-06T21:36:40.602Z,70.58
2018-07-06T21:39:10.557Z,70.09
2018-07-06T21:41:40.476Z,70.25
2018-07-06T21:44:10.288Z,71.46
2018-07-06T21:46:40.035Z,70.87
2018-07-06T21:49:09.929Z,70.36
2018-07-06T21:51:39.424Z,70.24
2018-07-06T21:54:09.327Z,70.04
2018-07-06T21:56:39.156Z,69.71
2018-07-06T21:59:09.071Z,69.44
2018-07-06T22:01:38.890Z,69.86
2018-07-06T22:04:08.803Z,69.39
2018-07-06T22:06:38.571Z,68.47
2018-07-06T22:09:08.552Z,68.48
2018-07-06T22:11:38.399Z,69.01
2018-07-06T22:14:08.304Z,68.92
2018-07-06T22:16:38.188Z,69.25
2018-07-06T22:19:07.558Z,69.51
2018-07-06T22:21:37.441Z,70.15
2018-07-06T22:24:07.459Z,70.00
2018-07-06T22:26:37.436Z,70.26
2018-07-06T22:29:07.387Z,67.79
2018-07-06T22:31:37.189Z,63.72
2018-07-06T22:34:06.994Z,59.27
2018-07-06T22:36:36.879Z,57.75
2018-07-06T22:39:08.081Z,56.62
2018-07-06T22:41:38.045Z,56.00
2018-07-06T22:44:07.931Z,56.01
2018-07-06T22:46:37.853Z,55.99
2018-07-06T22:49:07.778Z,56.22
2018-07-06T22:51:37.592Z,56.20
2018-07-06T22:54:07.439Z,56.88
2018-07-06T22:56:37.279Z,57.49
2018-07-06T22:59:07.208Z,57.67
2018-07-06T23:01:37.083Z,58.34
2018-07-06T23:04:06.948Z,58.89
2018-07-06T23:06:37.251Z,59.08
2018-07-06T23:09:08.187Z,58.88
2018-07-06T23:11:38.030Z,58.10
2018-07-06T23:14:07.849Z,55.59
2018-07-06T23:16:37.623Z,54.54
2018-07-06T23:19:07.419Z,53.36
2018-07-06T23:21:37.256Z,52.18
2018-07-06T23:24:07.187Z,52.13
2018-07-06T23:26:37.025Z,51.21
2018-07-06T23:29:06.951Z,51.58
2018-07-06T23:31:36.814Z,52.06
2018-07-06T23:34:06.787Z,52.34
2018-07-06T23:36:36.650Z,52.39
2018-07-06T23:39:06.722Z,52.09
2018-07-06T23:41:36.646Z,50.91
2018-07-06T23:44:06.639Z,50.17
2018-07-06T23:46:36.443Z,49.54
2018-07-06T23:49:06.269Z,49.37
2018-07-06T23:51:36.055Z,50.18
2018-07-06T23:54:05.986Z,49.11
2018-07-06T23:56:37.289Z,48.92
2018-07-06T23:59:07.098Z,49.62
